createdAt,value
2023-02-04T00:01:52.803Z,102953.34
2023-02-04T00:04:41.990Z,102958.59
2023-02-04T00:07:31.232Z,102964.06
2023-02-04T00:10:22.084Z,102972.81
2023-02-04T00:13:11.517Z,102973.44
2023-02-04T00:16:00.971Z,102973.44
2023-02-04T00:18:50.301Z,102972.38
2023-02-04T00:21:39.574Z,102969.41
2023-02-04T00:24:28.807Z,102966.94
2023-02-04T00:27:19.409Z,102960.88
2023-02-04T00:30:10.372Z,102963.09
2023-02-04T00:32:59.684Z,102955.69
2023-02-04T00:35:49.013Z,102960.63
2023-02-04T00:38:38.320Z,102955.13
2023-02-04T00:41:27.644Z,102957.59
2023-02-04T00:44:18.293Z,102964.75
2023-02-04T00:47:07.519Z,102959.25
2023-02-04T00:49:56.739Z,102963.38
2023-02-04T00:52:45.958Z,102962.53
2023-02-04T00:55:35.131Z,102960.63
2023-02-04T00:58:24.416Z,102962.81
2023-02-04T01:01:15.023Z,102970.78
2023-02-04T01:04:04.506Z,102967.47
2023-02-04T01:06:53.776Z,102962.50
2023-02-04T01:09:43.002Z,102964.44
2023-02-04T01:12:32.407Z,102953.72
2023-02-04T01:15:23.024Z,102964.69
2023-02-04T01:18:14.448Z,102961.59
2023-02-04T01:21:04.234Z,102958.66
2023-02-04T01:23:53.608Z,102952.31
2023-02-04T01:26:42.852Z,102966.34
2023-02-04T01:29:33.363Z,102966.56
2023-02-04T01:32:22.598Z,102966.03
2023-02-04T01:35:13.302Z,102963.81
2023-02-04T01:38:02.595Z,102981.13
2023-02-04T01:40:51.884Z,102973.97
2023-02-04T01:43:41.274Z,102970.69
2023-02-04T01:46:30.519Z,102973.13
2023-02-04T01:49:20.126Z,102967.66
2023-02-04T01:52:12.776Z,102970.41
2023-02-04T01:55:02.191Z,102972.38
2023-02-04T01:57:53.383Z,102977.31
2023-02-04T02:00:42.781Z,102976.72
2023-02-04T02:03:32.028Z,102973.91
2023-02-04T02:06:21.250Z,102973.44
2023-02-04T02:09:12.276Z,102979.72
2023-02-04T02:12:04.423Z,102968.44
2023-02-04T02:14:54.194Z,102978.63
2023-02-04T02:17:44.540Z,102975.00
2023-02-04T02:20:34.982Z,102971.66
2023-02-04T02:23:30.568Z,102979.94
2023-02-04T02:26:23.222Z,102969.16
2023-02-04T02:29:13.205Z,102984.63
2023-02-04T02:32:02.882Z,102981.59
2023-02-04T02:34:52.087Z,102970.28
2023-02-04T02:37:41.598Z,102981.53
2023-02-04T02:40:31.309Z,102996.34
2023-02-04T02:43:25.180Z,102988.38
2023-02-04T02:46:14.399Z,102998.53
2023-02-04T02:49:03.782Z,103001.31
2023-02-04T02:51:53.027Z,102992.00
2023-02-04T02:54:43.669Z,102991.41
2023-02-04T02:57:35.654Z,102984.00
2023-02-04T03:00:30.241Z,102994.63
2023-02-04T03:03:25.767Z,102990.31
2023-02-04T03:06:18.092Z,102988.59
2023-02-04T03:09:07.494Z,102985.88
2023-02-04T03:11:56.944Z,102978.69
2023-02-04T03:14:46.764Z,102970.41
2023-02-04T03:17:37.657Z,102966.66
2023-02-04T03:20:31.695Z,102972.16
2023-02-04T03:23:22.304Z,102966.13
2023-02-04T03:26:11.586Z,102971.88
2023-02-04T03:29:01.295Z,102958.41
2023-02-04T03:31:50.725Z,102959.50
2023-02-04T03:34:41.365Z,102952.88
2023-02-04T03:37:30.621Z,102954.84
2023-02-04T03:40:20.033Z,102963.31
2023-02-04T03:43:09.249Z,102969.13
2023-02-04T03:45:58.485Z,102974.63
2023-02-04T03:48:47.740Z,102976.22
2023-02-04T03:51:38.615Z,102971.56
2023-02-04T03:54:27.826Z,102973.75
2023-02-04T03:57:17.065Z,102971.81
2023-02-04T04:00:07.194Z,102981.97
2023-02-04T04:03:01.500Z,102973.47
2023-02-04T04:05:50.773Z,102976.47
2023-02-04T04:08:41.394Z,102974.03
2023-02-04T04:11:30.621Z,102967.44
2023-02-04T04:14:19.928Z,102962.78
2023-02-04T04:17:09.233Z,102955.09
2023-02-04T04:19:58.633Z,102952.03
2023-02-04T04:22:48.034Z,102955.91
2023-02-04T04:25:38.626Z,102952.91
2023-02-04T04:28:28.944Z,102958.66
2023-02-04T04:31:18.276Z,102937.75
2023-02-04T04:34:07.593Z,102960.53
2023-02-04T04:36:56.868Z,102955.88
2023-02-04T04:39:46.068Z,102957.75
2023-02-04T04:42:36.658Z,102961.84
2023-02-04T04:45:25.928Z,102963.19
2023-02-04T04:48:15.216Z,102951.63
2023-02-04T04:51:04.712Z,102966.50
2023-02-04T04:53:54.167Z,102962.09
2023-02-04T04:56:43.589Z,102958.50
2023-02-04T04:59:34.193Z,102972.13
2023-02-04T05:02:23.402Z,102969.97
2023-02-04T05:05:13.402Z,102965.25
2023-02-04T05:08:02.603Z,102975.69
2023-02-04T05:10:51.897Z,102972.72
2023-02-04T05:13:41.064Z,102964.69
2023-02-04T05:16:32.197Z,102977.84
2023-02-04T05:19:21.506Z,102977.59
2023-02-04T05:22:10.810Z,102966.50
2023-02-04T05:25:00.477Z,102979.63
2023-02-04T05:27:50.139Z,102974.63
2023-02-04T05:30:39.395Z,102988.06
2023-02-04T05:33:29.950Z,102989.50
2023-02-04T05:36:19.209Z,102989.19
2023-02-04T05:39:08.444Z,102984.22
2023-02-04T05:41:57.717Z,102979.63
2023-02-04T05:44:46.942Z,102982.09
2023-02-04T05:47:36.360Z,102970.31
2023-02-04T05:50:27.068Z,102967.59
2023-02-04T05:53:30.467Z,102972.75
2023-02-04T05:56:19.989Z,102963.75
2023-02-04T05:59:09.349Z,102968.63
2023-02-04T06:01:58.618Z,102967.03
2023-02-04T06:04:47.839Z,102963.22
2023-02-04T06:07:38.467Z,102962.31
2023-02-04T06:10:27.826Z,102951.16
2023-02-04T06:13:17.217Z,102955.25
2023-02-04T06:16:06.957Z,102951.66
2023-02-04T06:18:56.232Z,102961.00
2023-02-04T06:21:46.117Z,102959.66
2023-02-04T06:24:36.999Z,102956.66
2023-02-04T06:27:26.799Z,102962.09
2023-02-04T06:30:17.216Z,102957.44
2023-02-04T06:33:06.374Z,102951.97
2023-02-04T06:35:55.907Z,102956.09
2023-02-04T06:38:46.286Z,102939.91
2023-02-04T06:41:36.898Z,102948.44
2023-02-04T06:44:26.279Z,102953.41
2023-02-04T06:47:15.675Z,102955.06
2023-02-04T06:50:05.087Z,102961.88
2023-02-04T06:52:54.316Z,102967.38
2023-02-04T06:55:43.507Z,102960.47
2023-02-04T06:58:34.195Z,102955.06
2023-02-04T07:01:23.396Z,102964.91
2023-02-04T07:04:12.699Z,102959.44
2023-02-04T07:07:01.902Z,102956.69
2023-02-04T07:09:51.139Z,102960.75
2023-02-04T07:12:40.327Z,102970.13
2023-02-04T07:15:31.833Z,102964.38
2023-02-04T07:18:21.203Z,102957.84
2023-02-04T07:21:10.470Z,102943.53
2023-02-04T07:23:59.626Z,102953.13
2023-02-04T07:26:48.806Z,102945.19
2023-02-04T07:29:38.127Z,102946.84
2023-02-04T07:32:32.921Z,102943.00
2023-02-04T07:35:22.397Z,102932.00
2023-02-04T07:38:11.558Z,102947.91
2023-02-04T07:41:00.846Z,102945.19
2023-02-04T07:43:50.263Z,102940.56
2023-02-04T07:46:39.684Z,102951.44
2023-02-04T07:49:30.360Z,102948.22
2023-02-04T07:52:19.575Z,102949.13
2023-02-04T07:55:10.292Z,102943.88
2023-02-04T07:57:59.514Z,102955.34
2023-02-04T08:00:48.715Z,102952.88
2023-02-04T08:03:38.443Z,102963.88
2023-02-04T08:06:30.478Z,102959.16
2023-02-04T08:09:19.754Z,102962.72
2023-02-04T08:12:09.108Z,102970.13
2023-02-04T08:14:58.407Z,102964.03
2023-02-04T08:17:47.587Z,102969.03
2023-02-04T08:20:36.799Z,102987.97
2023-02-04T08:23:27.556Z,102981.09
2023-02-04T08:26:16.920Z,102984.91
2023-02-04T08:29:06.132Z,102987.63
2023-02-04T08:31:55.522Z,102995.63
2023-02-04T08:34:45.110Z,102974.16
2023-02-04T08:37:34.338Z,102968.47
2023-02-04T08:40:24.915Z,102980.75
2023-02-04T08:43:14.526Z,102987.38
2023-02-04T08:46:03.729Z,102998.63
2023-02-04T08:48:52.954Z,103001.69
2023-02-04T08:51:42.178Z,103003.81
2023-02-04T08:54:31.576Z,103009.84
2023-02-04T08:57:22.149Z,103000.75
2023-02-04T09:00:14.361Z,103008.69
2023-02-04T09:03:03.636Z,103011.09
2023-02-04T09:05:53.178Z,103018.06
2023-02-04T09:08:43.227Z,103031.22
2023-02-04T09:11:32.482Z,103023.28
2023-02-04T09:14:23.088Z,103025.38
2023-02-04T09:17:12.359Z,103033.34
2023-02-04T09:20:01.606Z,103032.88
2023-02-04T09:22:50.845Z,103042.25
2023-02-04T09:25:40.702Z,103031.84
2023-02-04T09:28:29.999Z,103036.28
2023-02-04T09:31:20.855Z,103028.94
2023-02-04T09:34:10.280Z,103024.78
2023-02-04T09:36:59.449Z,103041.22
2023-02-04T09:39:48.632Z,103027.53
2023-02-04T09:42:37.937Z,103030.84
2023-02-04T09:45:29.333Z,103033.63
2023-02-04T09:48:20.743Z,103030.09
2023-02-04T09:51:13.586Z,103030.97
2023-02-04T09:54:09.864Z,103027.22
2023-02-04T09:56:59.626Z,103023.88
2023-02-04T09:59:50.817Z,103027.75
2023-02-04T10:02:39.972Z,103034.06
2023-02-04T10:05:33.406Z,103024.41
2023-02-04T10:08:29.310Z,103031.47
2023-02-04T10:11:21.981Z,103032.09
2023-02-04T10:14:18.890Z,103020.75
2023-02-04T10:17:10.480Z,103022.00
2023-02-04T10:19:59.749Z,103020.31
2023-02-04T10:22:53.625Z,103032.44
2023-02-04T10:25:42.780Z,103040.38
2023-02-04T10:28:36.747Z,103045.38
2023-02-04T10:31:37.990Z,103052.00
2023-02-04T10:34:39.861Z,103055.00
2023-02-04T10:37:30.752Z,103045.97
2023-02-04T10:40:33.135Z,103024.78
2023-02-04T10:43:24.799Z,103049.75
2023-02-04T10:46:14.044Z,103042.94
2023-02-04T10:49:06.342Z,103054.03
2023-02-04T10:51:57.609Z,103047.97
2023-02-04T10:54:47.030Z,103031.28
2023-02-04T10:57:41.006Z,103032.41
2023-02-04T11:00:31.156Z,103036.03
2023-02-04T11:03:25.123Z,103046.50
2023-02-04T11:06:19.422Z,103041.28
2023-02-04T11:09:13.960Z,103040.19
2023-02-04T11:12:03.184Z,103044.38
2023-02-04T11:15:00.418Z,103049.34
2023-02-04T11:18:05.574Z,103057.06
2023-02-04T11:20:58.308Z,103045.69
2023-02-04T11:23:47.623Z,103049.59
2023-02-04T11:26:40.251Z,103047.97
2023-02-04T11:29:38.303Z,103067.75
2023-02-04T11:32:39.792Z,103057.88
2023-02-04T11:35:30.877Z,103044.72
2023-02-04T11:38:28.507Z,103029.31
2023-02-04T11:41:30.242Z,103036.50
2023-02-04T11:44:19.913Z,103047.00
2023-02-04T11:47:10.058Z,103046.19
2023-02-04T11:50:14.047Z,103043.75
2023-02-04T11:53:03.907Z,103049.25
2023-02-04T11:55:53.123Z,103048.16
2023-02-04T11:58:42.528Z,103047.59
2023-02-04T12:01:34.786Z,103047.84
2023-02-04T12:04:26.384Z,103034.66
2023-02-04T12:07:27.183Z,103026.97
2023-02-04T12:10:25.844Z,103023.28
2023-02-04T12:13:19.677Z,103028.16
2023-02-04T12:16:09.453Z,103047.97
2023-02-04T12:18:59.134Z,103033.00
2023-02-04T12:21:48.381Z,103028.59
2023-02-04T12:24:38.972Z,103021.16
2023-02-04T12:27:28.143Z,103027.47
2023-02-04T12:30:18.632Z,103023.41
2023-02-04T12:33:08.281Z,103018.25
2023-02-04T12:35:57.729Z,103029.56
2023-02-04T12:38:46.918Z,103035.63
2023-02-04T12:41:37.522Z,103041.09
2023-02-04T12:44:26.733Z,103032.66
2023-02-04T12:47:15.949Z,103046.91
2023-02-04T12:50:05.866Z,103038.28
2023-02-04T12:52:58.202Z,103033.31
2023-02-04T12:55:47.419Z,103033.31
2023-02-04T12:58:37.984Z,103037.94
2023-02-04T13:01:27.229Z,103041.19
2023-02-04T13:04:16.560Z,103044.47
2023-02-04T13:07:07.447Z,103050.22
2023-02-04T13:09:57.489Z,103042.69
2023-02-04T13:12:47.202Z,103044.34
2023-02-04T13:15:37.765Z,103046.34
2023-02-04T13:18:27.008Z,103054.38
2023-02-04T13:21:16.313Z,103047.41
2023-02-04T13:24:05.911Z,103041.16
2023-02-04T13:26:58.818Z,103027.44
2023-02-04T13:29:47.987Z,103008.88
2023-02-04T13:32:38.518Z,103036.81
2023-02-04T13:35:27.733Z,103025.16
2023-02-04T13:38:17.062Z,103028.88
2023-02-04T13:41:06.538Z,103032.47
2023-02-04T13:43:56.350Z,103022.66
2023-02-04T13:46:45.622Z,103019.22
2023-02-04T13:49:36.270Z,103026.97
2023-02-04T13:52:25.589Z,103025.09
2023-02-04T13:55:14.843Z,103024.09
2023-02-04T13:58:04.058Z,103015.84
2023-02-04T14:00:57.607Z,103026.88
2023-02-04T14:03:47.342Z,102995.53
2023-02-04T14:06:43.598Z,103025.22
2023-02-04T14:09:32.959Z,103023.28
2023-02-04T14:12:22.212Z,103031.59
2023-02-04T14:15:11.960Z,103026.09
2023-02-04T14:18:01.371Z,103037.66
2023-02-04T14:20:50.691Z,103034.06
2023-02-04T14:23:41.698Z,103043.38
2023-02-04T14:26:31.011Z,103047.78
2023-02-04T14:29:20.338Z,103046.66
2023-02-04T14:32:09.626Z,103061.22
2023-02-04T14:34:58.822Z,103042.56
2023-02-04T14:37:48.476Z,103061.03
2023-02-04T14:40:39.653Z,103062.69
2023-02-04T14:43:29.198Z,103063.25
2023-02-04T14:46:18.457Z,103067.13
2023-02-04T14:49:07.657Z,103081.16
2023-02-04T14:51:57.307Z,103083.91
2023-02-04T14:54:46.565Z,103073.72
2023-02-04T14:57:37.167Z,103084.72
2023-02-04T15:00:26.856Z,103106.47
2023-02-04T15:03:16.173Z,103101.50
2023-02-04T15:06:06.093Z,103106.41
2023-02-04T15:08:55.571Z,103108.31
2023-02-04T15:11:44.846Z,103114.38
2023-02-04T15:14:35.517Z,103123.13
2023-02-04T15:17:24.809Z,103116.25
2023-02-04T15:20:14.513Z,103131.66
2023-02-04T15:23:03.847Z,103138.81
2023-02-04T15:25:57.545Z,103160.22
2023-02-04T15:28:46.838Z,103175.84
2023-02-04T15:31:37.588Z,103169.22
2023-02-04T15:34:26.993Z,103183.50
2023-02-04T15:37:16.298Z,103181.00
2023-02-04T15:40:06.648Z,103183.59
2023-02-04T15:42:56.077Z,103195.41
2023-02-04T15:45:45.269Z,103213.13
2023-02-04T15:48:35.986Z,103217.94
2023-02-04T15:51:25.217Z,103221.56
2023-02-04T15:54:14.675Z,103225.00
2023-02-04T15:57:03.886Z,103234.00
2023-02-04T15:59:53.070Z,103246.34
2023-02-04T16:02:42.331Z,103260.44
2023-02-04T16:05:33.164Z,103298.09
2023-02-04T16:08:22.421Z,103303.91
2023-02-04T16:11:11.618Z,103316.50
2023-02-04T16:14:00.835Z,103343.47
2023-02-04T16:16:50.034Z,103358.25
2023-02-04T16:19:39.319Z,103375.28
2023-02-04T16:22:29.918Z,103399.19
2023-02-04T16:25:19.472Z,103399.00
2023-02-04T16:28:08.849Z,103414.09
2023-02-04T16:30:58.328Z,103422.00
2023-02-04T16:33:47.546Z,103423.53
2023-02-04T16:36:37.823Z,103423.41
2023-02-04T16:39:28.433Z,103431.63
2023-02-04T16:42:17.635Z,103434.16
2023-02-04T16:45:07.818Z,103447.81
2023-02-04T16:47:57.033Z,103444.47
2023-02-04T16:50:46.265Z,103460.53
2023-02-04T16:53:35.540Z,103470.63
2023-02-04T16:59:19.243Z,103473.38
2023-02-04T17:02:08.510Z,103480.50
2023-02-04T17:04:57.750Z,103491.44
2023-02-04T17:07:47.001Z,103506.41
2023-02-04T17:10:54.192Z,103507.25
2023-02-04T17:13:44.852Z,103520.91
2023-02-04T17:16:34.572Z,103519.38
2023-02-04T17:19:24.341Z,103516.63
2023-02-04T17:22:13.552Z,103526.38
2023-02-04T17:25:02.709Z,103544.56
2023-02-04T17:27:53.807Z,103539.44
2023-02-04T17:30:44.509Z,103540.03
2023-02-04T17:33:34.699Z,103555.97
2023-02-04T17:36:23.988Z,103580.25
2023-02-04T17:39:13.277Z,103576.06
2023-02-04T17:42:02.542Z,103587.13
2023-02-04T17:44:51.841Z,103587.00
2023-02-04T17:47:42.793Z,103604.59
2023-02-04T17:50:33.944Z,103597.69
2023-02-04T17:53:23.562Z,103603.38
2023-02-04T17:56:14.561Z,103590.44
2023-02-04T17:59:03.763Z,103601.63
2023-02-04T18:01:53.201Z,103606.84
2023-02-04T18:04:43.974Z,103615.63
2023-02-04T18:07:33.353Z,103617.19
2023-02-04T18:10:29.426Z,103614.09
2023-02-04T18:13:21.431Z,103613.50
2023-02-04T18:16:26.269Z,103637.59
2023-02-04T18:19:21.624Z,103644.13
2023-02-04T18:22:16.091Z,103662.31
2023-02-04T18:25:15.041Z,103676.78
2023-02-04T18:28:15.344Z,103684.41
2023-02-04T18:31:18.586Z,103688.22
2023-02-04T18:34:21.208Z,103694.16
2023-02-04T18:37:30.925Z,103701.72
2023-02-04T18:40:32.093Z,103704.69
2023-02-04T18:43:27.325Z,103703.03
2023-02-04T18:46:26.523Z,103701.72
2023-02-04T18:49:25.753Z,103712.50
2023-02-04T18:52:20.211Z,103707.28
2023-02-04T18:55:25.175Z,103724.34
2023-02-04T18:58:29.904Z,103733.94
2023-02-04T19:01:27.724Z,103713.63
2023-02-04T19:04:23.887Z,103714.44
2023-02-04T19:07:14.616Z,103735.47
2023-02-04T19:10:28.648Z,103745.50
2023-02-04T19:13:22.259Z,103730.38
2023-02-04T19:16:24.901Z,103741.38
2023-02-04T19:19:36.769Z,103753.34
2023-02-04T19:22:38.836Z,103751.56
2023-02-04T19:25:35.588Z,103760.66
2023-02-04T19:28:30.672Z,103770.31
2023-02-04T19:31:20.137Z,103780.47
2023-02-04T19:34:26.342Z,103793.56
2023-02-04T19:37:24.265Z,103774.69
2023-02-04T19:40:28.456Z,103781.66
2023-02-04T19:43:24.005Z,103789.44
2023-02-04T19:46:24.094Z,103797.25
2023-02-04T19:49:23.169Z,103800.88
2023-02-04T19:52:44.060Z,103778.03
2023-02-04T19:55:37.586Z,103764.81
2023-02-04T19:58:38.690Z,103765.22
2023-02-04T20:01:28.482Z,103779.31
2023-02-04T20:04:21.794Z,103755.84
2023-02-04T20:07:20.807Z,103747.72
2023-02-04T20:10:24.766Z,103757.78
2023-02-04T20:13:20.777Z,103744.19
2023-02-04T20:16:39.340Z,103749.41
2023-02-04T20:19:37.928Z,103755.78
2023-02-04T20:22:45.744Z,103760.00
2023-02-04T20:25:41.750Z,103758.13
2023-02-04T20:28:41.220Z,103764.28
2023-02-04T20:31:41.059Z,103765.59
2023-02-04T20:34:30.386Z,103758.66
2023-02-04T20:37:27.943Z,103762.22
2023-02-04T20:40:22.429Z,103755.56
2023-02-04T20:43:15.406Z,103753.06
2023-02-04T20:46:08.671Z,103759.75
2023-02-04T20:48:59.291Z,103753.09
2023-02-04T20:51:48.636Z,103763.16
2023-02-04T20:54:38.470Z,103770.50
2023-02-04T20:57:27.629Z,103765.69
2023-02-04T21:00:29.604Z,103777.66
2023-02-04T21:03:24.657Z,103774.91
2023-02-04T21:06:25.352Z,103776.22
2023-02-04T21:09:25.017Z,103787.94
2023-02-04T21:12:14.220Z,103805.97
2023-02-04T21:15:03.420Z,103812.91
2023-02-04T21:17:52.777Z,103815.22
2023-02-04T21:20:42.306Z,103811.69
2023-02-04T21:23:32.911Z,103827.78
2023-02-04T21:26:22.311Z,103839.13
2023-02-04T21:29:11.608Z,103850.47
2023-02-04T21:32:00.950Z,103859.03
2023-02-04T21:34:50.106Z,103866.81
2023-02-04T21:37:39.305Z,103852.59
2023-02-04T21:40:30.024Z,103848.19
2023-02-04T21:43:19.223Z,103851.97
2023-02-04T21:46:08.454Z,103858.03
2023-02-04T21:48:58.328Z,103864.94
2023-02-04T21:51:47.891Z,103869.38
2023-02-04T21:54:37.160Z,103877.53
2023-02-04T21:57:28.015Z,103878.78
2023-02-04T22:00:18.714Z,103863.09
2023-02-04T22:03:12.978Z,103872.50
2023-02-04T22:06:02.300Z,103907.88
2023-02-04T22:08:51.509Z,103879.00
2023-02-04T22:11:40.702Z,103899.09
2023-02-04T22:14:31.444Z,103912.88
2023-02-04T22:17:20.652Z,103917.94
2023-02-04T22:20:12.199Z,103909.13
2023-02-04T22:23:01.538Z,103911.00
2023-02-04T22:25:50.847Z,103914.34
2023-02-04T22:28:40.005Z,103902.00
2023-02-04T22:31:30.655Z,103928.16
2023-02-04T22:34:19.813Z,103949.91
2023-02-04T22:37:09.010Z,103945.72
2023-02-04T22:39:58.229Z,103951.34
2023-02-04T22:42:47.515Z,103954.50
2023-02-04T22:45:36.775Z,103964.75
2023-02-04T22:48:27.441Z,103965.13
2023-02-04T22:51:16.698Z,103999.47
2023-02-04T22:54:06.119Z,104015.75
2023-02-04T22:56:57.866Z,104032.47
2023-02-04T22:59:47.282Z,104040.44
2023-02-04T23:02:36.538Z,104025.75
2023-02-04T23:05:27.138Z,104035.59
2023-02-04T23:08:17.896Z,104011.06
2023-02-04T23:11:07.370Z,104028.63
2023-02-04T23:13:56.553Z,104032.41
2023-02-04T23:16:47.126Z,104039.94
2023-02-04T23:19:36.526Z,104028.00
2023-02-04T23:22:27.121Z,104020.44
2023-02-04T23:25:16.605Z,104025.28
2023-02-04T23:28:06.303Z,104043.28
2023-02-04T23:30:55.717Z,104064.56
2023-02-04T23:33:44.905Z,104092.41
2023-02-04T23:36:36.571Z,104094.28
2023-02-04T23:39:27.350Z,104093.63
2023-02-04T23:42:16.599Z,104092.16
2023-02-04T23:45:06.842Z,104076.66
2023-02-04T23:47:55.983Z,104077.69
2023-02-04T23:50:47.957Z,104062.84
2023-02-04T23:53:37.242Z,104053.19
2023-02-04T23:56:28.253Z,104033.28
2023-02-04T23:59:17.473Z,104020.34
